Time;durP1;ratioP1;P1;durP2;ratioP2;P2;SDS_P1;SDS_P2;PMS_P1;PMS_P2;Temp;Humidity;BMP_temperature;BMP_pressure;BME280_temperature;BME280_humidity;BME280_pressure;Samples;Min_cycle;Max_cycle;Signal;HPM_P1;HPM_P2
2023/05/22 00:00:51;;;;;;;18.60;15.38;;;18.70;99.90;;;;;;5016108;28;20093;-73
2023/05/22 00:03:17;;;;;;;20.70;15.80;;;18.70;99.90;;;;;;5017279;28;20081;-73
2023/05/22 00:05:43;;;;;;;17.45;14.63;;;18.60;99.90;;;;;;5016987;28;20060;-74
2023/05/22 00:08:11;;;;;;;17.23;14.68;;;18.60;99.90;;;;;;5016409;28;20050;-74
2023/05/22 00:10:37;;;;;;;17.92;16.02;;;18.50;99.90;;;;;;5017758;28;20048;-74
2023/05/22 00:13:03;;;;;;;17.02;14.73;;;18.20;99.90;;;;;;5015772;28;20091;-74
2023/05/22 00:15:29;;;;;;;19.13;15.38;;;18.10;99.90;;;;;;5016322;28;20046;-74
2023/05/22 00:17:55;;;;;;;18.40;15.60;;;17.90;99.90;;;;;;5015822;28;20042;-72
2023/05/22 00:20:22;;;;;;;19.30;15.45;;;17.90;99.90;;;;;;5015741;28;20049;-73
2023/05/22 00:22:48;;;;;;;18.45;15.07;;;17.90;99.90;;;;;;5017457;28;20129;-72
2023/05/22 00:25:17;;;;;;;19.30;15.50;;;17.90;99.90;;;;;;5017364;28;20057;-73
2023/05/22 00:27:43;;;;;;;17.40;14.60;;;17.90;99.90;;;;;;5015813;28;20050;-73
2023/05/22 00:30:09;;;;;;;19.23;15.52;;;17.90;99.90;;;;;;5016929;28;20054;-73
2023/05/22 00:32:34;;;;;;;20.73;15.40;;;18.00;99.90;;;;;;5016642;28;20137;-73
2023/05/22 00:35:00;;;;;;;19.80;15.70;;;17.90;99.90;;;;;;5017358;28;20085;-73
2023/05/22 00:37:26;;;;;;;20.83;15.15;;;17.80;99.90;;;;;;5017112;28;20104;-73
2023/05/22 00:39:51;;;;;;;19.63;15.68;;;17.80;99.90;;;;;;5016523;28;20091;-73
2023/05/22 00:42:18;;;;;;;20.02;15.57;;;17.90;99.90;;;;;;5016828;28;20046;-73
2023/05/22 00:44:43;;;;;;;17.48;14.43;;;17.80;99.90;;;;;;5015770;28;20050;-73
2023/05/22 00:47:09;;;;;;;18.17;15.27;;;17.80;99.90;;;;;;5017052;28;20133;-73
2023/05/22 00:49:35;;;;;;;19.17;15.88;;;17.80;99.90;;;;;;5016405;28;20041;-73
2023/05/22 00:52:01;;;;;;;20.60;14.85;;;17.80;99.90;;;;;;5015621;28;20053;-73
2023/05/22 00:54:29;;;;;;;18.00;15.10;;;17.80;99.90;;;;;;5016296;28;20065;-73
2023/05/22 00:56:56;;;;;;;16.88;14.38;;;17.70;99.90;;;;;;5015745;28;20093;-73
2023/05/22 00:59:22;;;;;;;17.85;14.35;;;17.70;99.90;;;;;;5016174;28;20053;-73
2023/05/22 01:01:48;;;;;;;19.63;14.82;;;17.80;99.90;;;;;;5016203;28;20054;-73
2023/05/22 01:04:14;;;;;;;19.17;15.32;;;17.80;99.90;;;;;;5017344;28;20494;-73
2023/05/22 01:06:40;;;;;;;17.65;14.10;;;17.90;99.90;;;;;;5018553;28;20156;-73
2023/05/22 01:09:06;;;;;;;18.45;15.65;;;17.90;99.90;;;;;;5018405;28;20495;-73
2023/05/22 01:11:55;;;;;;;19.25;14.52;;;17.90;99.90;;;;;;5015414;28;20049;-73
2023/05/22 01:14:27;;;;;;;19.00;14.80;;;18.00;99.90;;;;;;5015919;28;20088;-73
2023/05/22 01:17:07;;;;;;;17.88;14.95;;;17.90;99.90;;;;;;5016413;28;20053;-73
2023/05/22 01:20:05;;;;;;;19.52;15.02;;;18.00;99.90;;;;;;5015800;28;20077;-73
2023/05/22 01:22:39;;;;;;;20.35;14.95;;;18.00;99.90;;;;;;5016355;28;20413;-73
2023/05/22 01:25:26;;;;;;;17.20;14.63;;;17.90;99.90;;;;;;5016398;28;20116;-73
2023/05/22 01:28:15;;;;;;;17.38;14.23;;;17.90;99.90;;;;;;5014770;28;20060;-73
2023/05/22 01:30:56;;;;;;;18.23;14.43;;;17.90;99.90;;;;;;5004960;28;20057;-73
2023/05/22 01:33:24;;;;;;;20.50;14.50;;;17.90;99.90;;;;;;5016135;28;20058;-73
2023/05/22 01:35:52;;;;;;;18.08;14.20;;;17.90;99.90;;;;;;5016269;28;20470;-73
2023/05/22 01:38:19;;;;;;;16.90;14.65;;;17.90;99.90;;;;;;5015494;28;20042;-73
2023/05/22 01:40:46;;;;;;;20.70;15.88;;;17.90;99.90;;;;;;5014232;28;20044;-73
2023/05/22 01:43:15;;;;;;;20.30;16.02;;;17.90;99.90;;;;;;5015391;28;20515;-73
2023/05/22 01:45:41;;;;;;;17.77;14.55;;;17.80;99.90;;;;;;5015381;28;20050;-73
2023/05/22 01:48:06;;;;;;;18.33;14.52;;;17.80;99.90;;;;;;5015271;28;20050;-73
2023/05/22 01:50:33;;;;;;;21.25;15.70;;;17.70;99.90;;;;;;5014034;28;20050;-73
2023/05/22 01:53:20;;;;;;;19.08;15.98;;;17.70;99.90;;;;;;5016038;28;20042;-73
2023/05/22 01:55:54;;;;;;;18.85;15.18;;;17.70;99.90;;;;;;5015798;28;20054;-73
2023/05/22 01:58:41;;;;;;;17.63;14.85;;;17.60;99.90;;;;;;5015414;28;20058;-73
2023/05/22 02:01:12;;;;;;;16.67;14.27;;;17.60;99.90;;;;;;5015565;28;20049;-74
2023/05/22 02:03:40;;;;;;;18.15;14.68;;;17.60;99.90;;;;;;4997719;28;20042;-74
2023/05/22 02:06:10;;;;;;;18.75;14.65;;;17.50;99.90;;;;;;5014070;28;20400;-73
2023/05/22 02:08:39;;;;;;;18.90;15.23;;;17.50;99.90;;;;;;5014236;28;20065;-73
2023/05/22 02:11:06;;;;;;;20.63;15.77;;;17.40;99.90;;;;;;5014901;28;20124;-73
2023/05/22 02:13:33;;;;;;;17.60;14.75;;;17.40;99.90;;;;;;5014795;28;20505;-73
2023/05/22 02:16:00;;;;;;;18.20;14.75;;;17.40;99.90;;;;;;5014695;28;20092;-73
2023/05/22 02:18:28;;;;;;;20.15;15.80;;;17.40;99.90;;;;;;5014754;28;20054;-73
2023/05/22 02:20:55;;;;;;;19.80;15.43;;;17.30;99.90;;;;;;5014701;28;20057;-74
2023/05/22 02:23:21;;;;;;;18.23;14.00;;;17.30;99.90;;;;;;5014649;28;20049;-73
2023/05/22 02:25:47;;;;;;;18.48;14.73;;;17.30;99.90;;;;;;5014691;28;20045;-73
2023/05/22 02:28:13;;;;;;;19.65;14.50;;;17.30;99.90;;;;;;5015130;28;20430;-73
2023/05/22 02:30:39;;;;;;;18.00;15.30;;;17.30;99.90;;;;;;5013486;28;20076;-73
2023/05/22 02:33:04;;;;;;;18.05;15.10;;;17.20;99.90;;;;;;5014491;28;20054;-73
2023/05/22 02:35:31;;;;;;;18.02;15.07;;;17.20;99.90;;;;;;5013467;28;20057;-73
2023/05/22 02:37:57;;;;;;;20.05;15.75;;;17.20;99.90;;;;;;5014979;28;20056;-73
2023/05/22 02:40:22;;;;;;;19.75;15.05;;;17.30;99.90;;;;;;5014360;28;20129;-73
2023/05/22 02:42:48;;;;;;;20.27;15.10;;;17.30;99.90;;;;;;5015203;28;20077;-73
2023/05/22 02:45:14;;;;;;;19.33;15.20;;;17.30;99.90;;;;;;5014332;28;20046;-73
2023/05/22 02:47:39;;;;;;;17.95;14.75;;;17.30;99.90;;;;;;5014889;28;20137;-73
2023/05/22 02:50:06;;;;;;;20.73;15.82;;;17.30;99.90;;;;;;5014305;28;20053;-73
2023/05/22 02:52:32;;;;;;;19.80;15.95;;;17.30;99.90;;;;;;5014226;28;20103;-73
2023/05/22 02:54:57;;;;;;;18.25;14.98;;;17.30;99.90;;;;;;5013284;28;20148;-73
2023/05/22 02:57:23;;;;;;;19.55;15.57;;;17.30;99.90;;;;;;5014167;28;20475;-73
2023/05/22 02:59:49;;;;;;;19.58;15.07;;;17.30;99.90;;;;;;5014064;28;20045;-73
2023/05/22 03:02:16;;;;;;;19.48;15.35;;;17.30;99.90;;;;;;5014089;28;20050;-73
2023/05/22 03:04:42;;;;;;;18.98;15.10;;;17.40;99.90;;;;;;5012829;28;20054;-73
2023/05/22 03:07:07;;;;;;;18.60;15.77;;;17.40;99.90;;;;;;5013330;28;20057;-73
2023/05/22 03:09:33;;;;;;;20.98;15.88;;;17.40;99.90;;;;;;5013299;28;20085;-73
2023/05/22 03:11:59;;;;;;;18.33;15.75;;;17.40;99.90;;;;;;5013719;28;20048;-73
2023/05/22 03:14:25;;;;;;;20.85;15.40;;;17.40;99.90;;;;;;5012978;28;20054;-73
2023/05/22 03:16:53;;;;;;;20.40;15.65;;;17.40;99.90;;;;;;5014761;28;20066;-74
2023/05/22 03:19:19;;;;;;;20.80;16.40;;;17.40;99.90;;;;;;4997358;28;20128;-73
2023/05/22 03:21:45;;;;;;;20.42;16.38;;;17.30;99.90;;;;;;5014364;28;20455;-73
2023/05/22 03:24:11;;;;;;;19.05;15.48;;;17.40;99.90;;;;;;5014378;28;20054;-73
2023/05/22 03:26:38;;;;;;;21.90;15.63;;;17.40;99.90;;;;;;4997292;28;20077;-73
2023/05/22 03:29:04;;;;;;;20.30;15.38;;;17.40;99.90;;;;;;5013499;28;20062;-74
2023/05/22 03:31:31;;;;;;;19.15;15.43;;;17.40;99.90;;;;;;5013857;28;20093;-73
2023/05/22 03:33:57;;;;;;;20.25;15.68;;;17.40;99.90;;;;;;5013685;28;20046;-73
2023/05/22 03:36:24;;;;;;;18.67;16.10;;;17.40;99.90;;;;;;5013036;28;20382;-74
2023/05/22 03:38:50;;;;;;;17.50;14.65;;;17.40;99.90;;;;;;5013944;28;20142;-73
2023/05/22 03:41:16;;;;;;;19.60;15.85;;;17.30;99.90;;;;;;5013615;28;20046;-73
2023/05/22 03:43:42;;;;;;;17.70;14.88;;;17.20;99.90;;;;;;5014256;28;20045;-73
2023/05/22 03:46:09;;;;;;;18.15;15.60;;;17.20;99.90;;;;;;5013379;28;20054;-74
2023/05/22 03:48:35;;;;;;;16.33;14.40;;;17.20;99.90;;;;;;5013218;28;20403;-73
2023/05/22 03:51:01;;;;;;;18.08;15.23;;;17.30;99.90;;;;;;5013321;28;20077;-73
2023/05/22 03:53:27;;;;;;;17.60;15.00;;;17.20;99.90;;;;;;5013731;28;20077;-73
2023/05/22 03:55:53;;;;;;;19.92;15.77;;;17.20;99.90;;;;;;5014061;28;20061;-73
2023/05/22 03:58:19;;;;;;;17.75;14.98;;;17.20;99.90;;;;;;5013498;28;20042;-72
2023/05/22 04:00:45;;;;;;;23.40;15.90;;;17.20;99.90;;;;;;5013992;28;20041;-72
2023/05/22 04:03:11;;;;;;;19.63;15.93;;;17.20;99.90;;;;;;5012050;28;20057;-74
2023/05/22 04:05:40;;;;;;;21.45;15.98;;;17.20;99.90;;;;;;5013375;28;20084;-71
2023/05/22 04:08:06;;;;;;;22.48;16.70;;;17.20;99.90;;;;;;5013498;28;20045;-72
2023/05/22 04:10:32;;;;;;;20.65;16.35;;;17.20;99.90;;;;;;5013961;28;20451;-72
2023/05/22 04:12:58;;;;;;;17.70;15.70;;;17.20;99.90;;;;;;5013402;28;20108;-74
2023/05/22 04:15:24;;;;;;;21.02;16.20;;;17.30;99.90;;;;;;5013583;28;20045;-73
2023/05/22 04:17:50;;;;;;;20.80;16.45;;;17.30;99.90;;;;;;5013322;28;20140;-72
2023/05/22 04:20:16;;;;;;;21.45;17.08;;;17.30;99.90;;;;;;5013238;28;20045;-73
2023/05/22 04:22:44;;;;;;;21.92;16.42;;;17.30;99.90;;;;;;5013376;28;20089;-73
2023/05/22 04:25:10;;;;;;;20.30;16.00;;;17.30;99.90;;;;;;5013357;28;20050;-73
2023/05/22 04:27:36;;;;;;;20.02;16.17;;;17.30;99.90;;;;;;5013782;28;20100;-73
2023/05/22 04:30:03;;;;;;;19.25;16.23;;;17.30;99.90;;;;;;5013991;28;20413;-73
2023/05/22 04:32:29;;;;;;;19.65;15.85;;;17.30;99.90;;;;;;5016466;28;20057;-73
2023/05/22 04:34:57;;;;;;;20.63;16.50;;;17.30;99.90;;;;;;5015990;28;20099;-73
2023/05/22 04:37:25;;;;;;;19.42;16.25;;;17.30;99.90;;;;;;5016650;28;20053;-73
2023/05/22 04:39:52;;;;;;;18.73;15.98;;;17.30;99.90;;;;;;5016298;28;20053;-73
2023/05/22 04:42:19;;;;;;;19.55;16.20;;;17.30;99.90;;;;;;5016570;28;20125;-74
2023/05/22 04:44:45;;;;;;;18.17;16.17;;;17.30;99.90;;;;;;5016542;28;20446;-73
2023/05/22 04:47:13;;;;;;;18.58;15.90;;;17.30;99.90;;;;;;4999123;28;20104;-73
2023/05/22 04:49:39;;;;;;;22.33;16.15;;;17.30;99.90;;;;;;5016388;28;20454;-73
2023/05/22 04:52:06;;;;;;;20.45;15.48;;;17.30;99.90;;;;;;5016385;28;20050;-73
2023/05/22 04:54:32;;;;;;;18.98;15.45;;;17.40;99.90;;;;;;5016359;28;20068;-73
2023/05/22 04:56:58;;;;;;;18.85;15.77;;;17.40;99.90;;;;;;5015939;28;20491;-73
2023/05/22 04:59:25;;;;;;;19.13;16.00;;;17.40;99.90;;;;;;5016319;28;20049;-73
2023/05/22 05:01:51;;;;;;;18.63;15.85;;;17.40;99.90;;;;;;4999198;28;20096;-73
2023/05/22 05:04:17;;;;;;;20.23;15.82;;;17.40;99.90;;;;;;5016969;28;20068;-73
2023/05/22 05:06:43;;;;;;;18.85;15.88;;;17.40;99.90;;;;;;5016873;28;20541;-74
2023/05/22 05:09:09;;;;;;;19.05;15.15;;;17.40;99.90;;;;;;5015152;28;20046;-73
2023/05/22 05:11:35;;;;;;;17.85;14.93;;;17.40;99.90;;;;;;5016006;28;20046;-73
2023/05/22 05:14:01;;;;;;;18.02;15.40;;;17.40;99.90;;;;;;5015999;28;20045;-73
2023/05/22 05:16:27;;;;;;;18.60;15.23;;;17.40;99.90;;;;;;5016021;28;20050;-73
2023/05/22 05:18:54;;;;;;;18.98;15.65;;;17.40;99.90;;;;;;5015529;28;20049;-73
2023/05/22 05:21:20;;;;;;;17.40;15.32;;;17.40;99.90;;;;;;5015822;28;20054;-73
2023/05/22 05:23:46;;;;;;;20.15;16.05;;;17.40;99.90;;;;;;5015054;28;20080;-73
2023/05/22 05:26:12;;;;;;;17.95;15.00;;;17.40;99.90;;;;;;5015741;28;20050;-72
2023/05/22 05:28:38;;;;;;;17.88;15.10;;;17.40;99.90;;;;;;5016195;28;20052;-72
2023/05/22 05:31:04;;;;;;;19.52;15.80;;;17.30;99.90;;;;;;5015204;28;20065;-73
2023/05/22 05:33:30;;;;;;;17.92;15.45;;;17.30;99.90;;;;;;5015595;28;20217;-72
2023/05/22 05:35:55;;;;;;;18.40;15.73;;;17.30;99.90;;;;;;5016028;28;20042;-72
2023/05/22 05:38:21;;;;;;;18.55;16.00;;;17.30;99.90;;;;;;5014828;28;20049;-73
2023/05/22 05:40:48;;;;;;;17.40;15.20;;;17.30;99.90;;;;;;5015418;28;20116;-73
2023/05/22 05:43:14;;;;;;;17.55;14.38;;;17.30;99.90;;;;;;5014319;28;20053;-73
2023/05/22 05:45:41;;;;;;;20.17;14.93;;;17.30;99.90;;;;;;5013855;28;20511;-72
2023/05/22 05:48:06;;;;;;;18.17;14.65;;;17.30;99.90;;;;;;5015592;28;20483;-73
2023/05/22 05:50:32;;;;;;;18.50;15.02;;;17.30;99.90;;;;;;5015318;28;20096;-73
2023/05/22 05:52:58;;;;;;;19.60;14.57;;;17.30;99.90;;;;;;5016024;28;20095;-73
2023/05/22 05:55:24;;;;;;;19.15;14.65;;;17.30;99.90;;;;;;5015213;28;20103;-73
2023/05/22 05:57:51;;;;;;;17.02;14.98;;;17.30;99.90;;;;;;5015151;28;20077;-72
2023/05/22 06:00:17;;;;;;;16.42;14.40;;;17.30;99.90;;;;;;5014995;28;20387;-73
2023/05/22 06:02:44;;;;;;;19.00;14.80;;;17.40;99.90;;;;;;5016781;28;20115;-73
2023/05/22 06:05:10;;;;;;;15.20;13.60;;;17.40;99.90;;;;;;5017004;28;20057;-73
2023/05/22 06:07:36;;;;;;;16.48;14.70;;;17.40;99.90;;;;;;5016927;28;20399;-73
2023/05/22 06:10:07;;;;;;;16.38;13.57;;;17.40;99.90;;;;;;5015440;28;20052;-63
2023/05/22 06:12:32;;;;;;;16.52;13.23;;;17.40;99.90;;;;;;5015147;28;20129;-64
2023/05/22 06:14:58;;;;;;;15.90;13.45;;;17.50;99.90;;;;;;5015612;28;20128;-64
2023/05/22 06:17:24;;;;;;;15.52;12.88;;;17.50;99.90;;;;;;5015051;28;20520;-64
2023/05/22 06:19:50;;;;;;;13.90;12.18;;;17.50;99.90;;;;;;5014640;28;20043;-63
2023/05/22 06:22:16;;;;;;;15.93;13.48;;;17.60;99.90;;;;;;5014736;28;20446;-64
2023/05/22 06:24:41;;;;;;;15.95;13.27;;;17.70;99.90;;;;;;5014702;28;20052;-64
2023/05/22 06:27:07;;;;;;;16.00;13.80;;;17.70;99.90;;;;;;5014651;28;20082;-63
2023/05/22 06:29:33;;;;;;;16.33;13.52;;;17.80;99.90;;;;;;5014541;28;20053;-64
2023/05/22 06:31:59;;;;;;;14.88;13.25;;;17.80;99.90;;;;;;5014476;28;20093;-64
2023/05/22 06:34:26;;;;;;;16.48;12.77;;;17.90;99.90;;;;;;5014091;28;20049;-64
2023/05/22 06:36:52;;;;;;;15.40;13.07;;;18.00;99.90;;;;;;5014032;28;20546;-64
2023/05/22 06:39:17;;;;;;;16.23;13.65;;;18.10;99.90;;;;;;5014403;28;20126;-64
2023/05/22 06:41:43;;;;;;;16.13;13.50;;;18.10;99.90;;;;;;5014270;28;20046;-64
2023/05/22 06:44:11;;;;;;;16.00;12.65;;;18.20;99.90;;;;;;5014363;28;20050;-63
2023/05/22 06:46:36;;;;;;;16.90;12.98;;;18.30;99.90;;;;;;5014847;28;20053;-64
2023/05/22 06:49:02;;;;;;;15.55;12.98;;;18.30;99.90;;;;;;5014262;28;20497;-64
2023/05/22 06:51:28;;;;;;;14.88;13.02;;;18.30;99.90;;;;;;5014753;28;20493;-64
2023/05/22 06:53:55;;;;;;;16.27;14.48;;;18.40;99.90;;;;;;5013429;28;20142;-64
2023/05/22 06:56:21;;;;;;;16.55;13.88;;;18.50;99.90;;;;;;5013867;28;20525;-64
2023/05/22 06:58:47;;;;;;;16.85;14.02;;;18.60;99.90;;;;;;5014088;28;20068;-64
2023/05/22 07:01:12;;;;;;;16.10;13.77;;;18.60;99.90;;;;;;5012900;28;20079;-64
2023/05/22 07:03:38;;;;;;;17.63;14.10;;;18.60;99.90;;;;;;5014091;28;20410;-64
2023/05/22 07:06:04;;;;;;;15.05;13.50;;;18.70;99.90;;;;;;5013317;28;20045;-64
2023/05/22 07:08:30;;;;;;;15.10;12.85;;;18.70;99.90;;;;;;5014505;28;20045;-64
2023/05/22 07:10:56;;;;;;;16.20;13.80;;;18.80;99.90;;;;;;5014822;28;20053;-64
2023/05/22 07:13:22;;;;;;;16.20;13.43;;;18.90;99.90;;;;;;5014362;28;20050;-64
2023/05/22 07:15:48;;;;;;;16.00;13.82;;;18.90;99.90;;;;;;5013440;28;20409;-64
2023/05/22 07:18:13;;;;;;;16.65;13.50;;;19.00;99.90;;;;;;5012778;28;20138;-65
2023/05/22 07:20:39;;;;;;;16.45;13.95;;;19.10;99.90;;;;;;5013319;28;20049;-65
2023/05/22 07:23:06;;;;;;;18.38;14.65;;;19.10;99.90;;;;;;5013548;28;20081;-65
2023/05/22 07:25:32;;;;;;;15.90;13.38;;;19.20;99.90;;;;;;5014507;28;20050;-64
2023/05/22 07:27:57;;;;;;;15.77;13.93;;;19.20;99.90;;;;;;5013755;28;20506;-64
2023/05/22 07:30:23;;;;;;;16.60;13.43;;;19.20;99.90;;;;;;5013929;28;20569;-64
2023/05/22 07:32:49;;;;;;;15.85;13.05;;;19.20;99.90;;;;;;5013664;28;20487;-64
2023/05/22 07:35:15;;;;;;;16.67;13.27;;;19.20;99.90;;;;;;5013830;28;20390;-65
2023/05/22 07:37:41;;;;;;;15.10;13.20;;;19.20;99.90;;;;;;5014457;28;20045;-64
2023/05/22 07:40:08;;;;;;;16.00;13.27;;;19.20;99.90;;;;;;5014172;28;20375;-65
2023/05/22 07:42:34;;;;;;;13.82;12.43;;;19.30;99.90;;;;;;5013668;28;20394;-65
2023/05/22 07:45:00;;;;;;;18.42;13.88;;;19.40;99.90;;;;;;5013625;28;20046;-65
2023/05/22 07:47:26;;;;;;;15.35;13.43;;;19.40;99.90;;;;;;5014149;28;20053;-65
2023/05/22 07:49:52;;;;;;;15.00;13.40;;;19.50;99.90;;;;;;5014149;28;20053;-65
2023/05/22 07:52:18;;;;;;;15.43;12.82;;;19.60;99.90;;;;;;5013231;28;20045;-64
2023/05/22 07:54:43;;;;;;;15.73;12.98;;;19.70;99.90;;;;;;5013764;28;20065;-64
2023/05/22 07:57:11;;;;;;;15.23;12.68;;;19.80;99.90;;;;;;5013236;28;20050;-64
2023/05/22 07:59:37;;;;;;;13.63;11.95;;;19.90;99.90;;;;;;5013356;28;20120;-64
2023/05/22 08:02:02;;;;;;;14.98;12.02;;;20.20;99.90;;;;;;5014214;28;20145;-65
2023/05/22 08:04:28;;;;;;;15.13;12.02;;;20.50;99.90;;;;;;5013129;28;20048;-64
2023/05/22 08:06:55;;;;;;;12.70;10.80;;;20.60;99.90;;;;;;5016224;28;20045;-64
2023/05/22 08:09:21;;;;;;;13.07;11.68;;;20.80;99.90;;;;;;5017033;28;20050;-64
2023/05/22 08:11:47;;;;;;;14.38;11.75;;;20.90;99.90;;;;;;5017496;28;20038;-64
2023/05/22 08:14:13;;;;;;;12.70;11.23;;;21.00;99.90;;;;;;5017837;28;20133;-64
2023/05/22 08:16:38;;;;;;;14.65;11.68;;;21.20;99.90;;;;;;5017042;28;20050;-64
2023/05/22 08:19:06;;;;;;;15.93;11.32;;;21.30;99.90;;;;;;5017005;28;20050;-64
2023/05/22 08:21:33;;;;;;;11.73;10.52;;;21.40;99.90;;;;;;5016884;28;20053;-64
2023/05/22 08:23:59;;;;;;;12.35;11.05;;;21.40;99.90;;;;;;5017753;28;20058;-64
2023/05/22 08:26:25;;;;;;;13.98;10.85;;;21.30;99.90;;;;;;5017172;28;20050;-64
2023/05/22 08:28:51;;;;;;;12.10;10.85;;;21.20;99.90;;;;;;5016915;28;20100;-64
2023/05/22 08:31:17;;;;;;;12.65;10.82;;;21.10;99.90;;;;;;5017619;28;20478;-64
2023/05/22 08:33:44;;;;;;;12.18;10.30;;;21.10;99.90;;;;;;5017578;28;20434;-64
2023/05/22 08:36:10;;;;;;;11.70;10.25;;;20.90;99.90;;;;;;5016841;28;20580;-64
2023/05/22 08:38:36;;;;;;;11.65;10.00;;;20.90;99.90;;;;;;5016953;28;20053;-64
2023/05/22 08:41:02;;;;;;;13.60;10.77;;;20.90;99.90;;;;;;5017309;28;20461;-64
2023/05/22 08:43:28;;;;;;;12.43;9.85;;;21.10;99.90;;;;;;5017377;28;20422;-64
2023/05/22 08:46:04;;;;;;;12.38;10.38;;;21.20;99.90;;;;;;5017046;28;20046;-64
2023/05/22 08:48:31;;;;;;;12.60;9.63;;;21.40;99.90;;;;;;5017284;28;20049;-64
2023/05/22 08:51:04;;;;;;;11.45;9.63;;;21.40;99.90;;;;;;5016138;28;20506;-64
2023/05/22 08:53:34;;;;;;;10.52;9.32;;;21.50;99.90;;;;;;5016398;28;20053;-65
2023/05/22 08:56:02;;;;;;;10.80;9.70;;;21.50;99.90;;;;;;5016592;28;20049;-64
2023/05/22 08:58:28;;;;;;;13.40;10.70;;;21.60;99.90;;;;;;5016840;28;20050;-64
2023/05/22 09:00:54;;;;;;;10.93;9.43;;;21.70;99.90;;;;;;5016473;28;20396;-64
2023/05/22 09:03:21;;;;;;;11.30;10.05;;;21.80;99.90;;;;;;5016709;28;20410;-64
2023/05/22 09:05:48;;;;;;;12.48;9.65;;;22.00;99.90;;;;;;5015847;28;20550;-64
2023/05/22 09:08:14;;;;;;;12.13;10.23;;;22.00;99.90;;;;;;5016694;28;20072;-64
2023/05/22 09:10:40;;;;;;;12.57;9.35;;;22.00;99.90;;;;;;5016060;28;20049;-65
2023/05/22 09:13:10;;;;;;;11.90;9.35;;;22.00;99.90;;;;;;5015745;28;20052;-64
2023/05/22 09:15:36;;;;;;;11.02;9.13;;;22.00;99.90;;;;;;5015701;28;20494;-64
2023/05/22 09:18:03;;;;;;;11.55;9.20;;;22.10;99.90;;;;;;5016185;28;20379;-64
2023/05/22 09:20:33;;;;;;;12.50;9.63;;;22.10;99.90;;;;;;5016918;28;20057;-64
2023/05/22 09:22:58;;;;;;;11.35;9.50;;;22.00;99.90;;;;;;5015829;28;20050;-64
2023/05/22 09:25:25;;;;;;;11.50;10.30;;;21.90;99.90;;;;;;5016257;28;20050;-64
2023/05/22 09:27:51;;;;;;;11.40;9.73;;;21.90;99.90;;;;;;5016284;28;20061;-64
2023/05/22 09:30:18;;;;;;;9.93;8.90;;;21.80;99.90;;;;;;5015415;28;20458;-64
2023/05/22 09:32:47;;;;;;;12.88;9.57;;;21.80;99.90;;;;;;5015679;28;20463;-64
2023/05/22 09:35:13;;;;;;;10.88;9.55;;;21.90;99.90;;;;;;5016046;28;20050;-64
2023/05/22 09:37:39;;;;;;;10.68;9.57;;;22.00;99.90;;;;;;5015190;28;20056;-64
2023/05/22 09:40:10;;;;;;;11.38;9.75;;;22.10;99.90;;;;;;5014590;28;20446;-65
2023/05/22 09:42:36;;;;;;;12.85;9.75;;;22.00;99.90;;;;;;5015410;28;20112;-64
2023/05/22 09:45:06;;;;;;;11.52;9.30;;;22.00;99.90;;;;;;5015209;28;20046;-65
2023/05/22 09:47:35;;;;;;;11.65;9.10;;;22.00;99.90;;;;;;5015495;28;20046;-65
2023/05/22 09:50:05;;;;;;;10.20;9.20;;;21.90;99.90;;;;;;5014042;28;20089;-66
2023/05/22 09:52:33;;;;;;;11.68;9.25;;;22.00;99.90;;;;;;5015190;28;20049;-65
2023/05/22 09:55:04;;;;;;;9.82;8.82;;;22.10;99.90;;;;;;5015294;28;20112;-65
2023/05/22 09:57:43;;;;;;;10.82;9.63;;;22.20;99.90;;;;;;5015251;28;20049;-66
2023/05/22 10:00:17;;;;;;;10.57;9.07;;;22.10;99.90;;;;;;5015285;28;20125;-66
2023/05/22 10:03:14;;;;;;;10.75;9.55;;;22.10;99.90;;;;;;5015130;28;20042;-65
2023/05/22 10:05:46;;;;;;;10.65;9.43;;;22.00;99.90;;;;;;5014443;28;20101;-66
2023/05/22 10:08:19;;;;;;;13.20;9.30;;;21.90;99.90;;;;;;5015436;28;20046;-66
2023/05/22 10:10:50;;;;;;;11.07;8.90;;;21.90;99.90;;;;;;5015652;28;20045;-66
2023/05/22 10:13:16;;;;;;;11.82;9.07;;;21.80;99.90;;;;;;5015157;28;20553;-66
2023/05/22 10:15:42;;;;;;;9.85;8.70;;;21.90;99.90;;;;;;5015371;28;20041;-65
2023/05/22 10:18:10;;;;;;;12.68;9.15;;;22.00;99.90;;;;;;5014766;28;20052;-65
2023/05/22 10:20:36;;;;;;;10.40;8.93;;;22.10;99.90;;;;;;5015432;28;20357;-65
2023/05/22 10:23:02;;;;;;;11.18;8.75;;;22.10;99.90;;;;;;5014690;28;20402;-65
2023/05/22 10:25:29;;;;;;;11.02;9.30;;;22.20;99.90;;;;;;5014662;28;20456;-65
2023/05/22 10:27:56;;;;;;;10.80;9.40;;;22.30;99.90;;;;;;5014226;28;20184;-64
2023/05/22 10:30:28;;;;;;;12.60;10.00;;;22.40;99.90;;;;;;5014327;28;20111;-65
2023/05/22 10:33:13;;;;;;;11.20;9.02;;;22.50;99.90;;;;;;5014146;28;20061;-65
2023/05/22 10:35:58;;;;;;;11.23;9.50;;;22.60;99.90;;;;;;5013499;28;20052;-65
2023/05/22 10:38:29;;;;;;;12.35;10.07;;;22.70;99.90;;;;;;5014336;28;20088;-66
2023/05/22 10:40:56;;;;;;;12.15;9.90;;;22.90;99.90;;;;;;5014676;28;20179;-64
2023/05/22 10:43:21;;;;;;;10.60;8.57;;;23.30;99.90;;;;;;5014351;28;20093;-64
2023/05/22 10:45:47;;;;;;;11.48;10.13;;;23.90;99.90;;;;;;5014145;28;20081;-64
2023/05/22 10:48:13;;;;;;;11.82;9.05;;;24.30;99.90;;;;;;5014327;28;20046;-64
2023/05/22 10:50:49;;;;;;;10.85;8.85;;;24.50;99.90;;;;;;5014255;28;20037;-64
2023/05/22 10:53:22;;;;;;;;;;;24.50;99.90;;;;;;5014652;28;20482;-64
2023/05/22 10:55:55;;;;;;;12.07;8.95;;;24.60;99.90;;;;;;5014179;28;19928;-64
2023/05/22 10:58:32;;;;;;;12.93;9.75;;;24.60;99.90;;;;;;5012873;28;20061;-64
2023/05/22 11:01:18;;;;;;;10.45;8.73;;;24.50;99.90;;;;;;5014006;28;20049;-64
2023/05/22 11:03:53;;;;;;;10.88;9.38;;;24.40;99.90;;;;;;5014417;28;20053;-64
2023/05/22 11:06:37;;;;;;;10.57;9.02;;;24.30;99.90;;;;;;5013916;28;20132;-64
2023/05/22 11:09:30;;;;;;;11.13;9.45;;;24.30;99.90;;;;;;5014665;28;20364;-64
2023/05/22 11:12:27;;;;;;;14.60;9.63;;;24.10;99.90;;;;;;5013844;28;20052;-65
2023/05/22 11:14:55;;;;;;;11.63;10.20;;;24.00;99.90;;;;;;5014048;28;20085;-63
2023/05/22 11:17:26;;;;;;;13.35;10.15;;;24.00;99.90;;;;;;5014401;28;20046;-64
2023/05/22 11:20:17;;;;;;;11.25;9.73;;;24.10;99.90;;;;;;5014381;28;20049;-64
2023/05/22 11:22:48;;;;;;;11.52;9.55;;;24.30;99.90;;;;;;5014091;28;20104;-64
2023/05/22 11:25:17;;;;;;;11.20;9.70;;;24.50;99.90;;;;;;5014647;28;20041;-63
2023/05/22 11:27:43;;;;;;;11.55;10.30;;;24.90;99.90;;;;;;5013757;28;20128;-64
2023/05/22 11:30:10;;;;;;;12.65;10.13;;;25.20;99.90;;;;;;5013743;28;20054;-64
2023/05/22 11:32:37;;;;;;;12.73;10.05;;;25.50;99.90;;;;;;5013699;28;20487;-64
2023/05/22 11:35:09;;;;;;;11.25;10.05;;;25.90;99.90;;;;;;5013682;28;20057;-64
2023/05/22 11:37:38;;;;;;;11.90;10.27;;;26.30;99.90;;;;;;5014324;28;20456;-64
2023/05/22 11:40:05;;;;;;;12.82;10.48;;;26.70;99.90;;;;;;5014997;28;20050;-64
2023/05/22 11:42:31;;;;;;;11.65;10.35;;;26.70;99.90;;;;;;5018220;28;20049;-64
2023/05/22 11:44:57;;;;;;;11.45;10.27;;;26.80;99.90;;;;;;5017725;28;20061;-63
2023/05/22 11:47:25;;;;;;;11.20;9.82;;;26.80;99.90;;;;;;5017646;28;20601;-64
2023/05/22 11:49:52;;;;;;;11.18;9.93;;;26.80;99.90;;;;;;5017434;28;20513;-64
2023/05/22 11:52:18;;;;;;;10.60;9.60;;;27.20;99.90;;;;;;5017460;28;20056;-64
2023/05/22 11:54:47;;;;;;;11.32;10.18;;;27.50;99.90;;;;;;5017014;28;20037;-65
2023/05/22 11:57:14;;;;;;;9.75;8.65;;;27.70;99.90;;;;;;5017441;28;20045;-65
2023/05/22 11:59:45;;;;;;;12.00;10.50;;;27.90;99.90;;;;;;5017870;28;20100;-65
2023/05/22 12:02:11;;;;;;;10.35;9.35;;;28.10;99.90;;;;;;5017323;28;20064;-65
2023/05/22 12:04:37;;;;;;;10.27;9.18;;;28.20;99.90;;;;;;5017172;28;20487;-65
2023/05/22 12:07:03;;;;;;;10.63;8.95;;;28.40;99.90;;;;;;5017709;28;20046;-65
2023/05/22 12:09:29;;;;;;;10.95;9.70;;;28.60;99.90;;;;;;5017157;28;20046;-65
2023/05/22 12:11:56;;;;;;;10.60;9.50;;;28.60;99.90;;;;;;5017448;28;20430;-65
2023/05/22 12:14:30;;;;;;;10.93;9.85;;;28.40;99.90;;;;;;5016974;28;20054;-65
2023/05/22 12:16:59;;;;;;;12.02;10.05;;;28.20;99.90;;;;;;5016005;28;20482;-65
2023/05/22 12:19:26;;;;;;;12.50;11.13;;;28.10;99.90;;;;;;5015828;28;20050;-65
2023/05/22 12:21:53;;;;;;;12.27;10.98;;;27.90;99.90;;;;;;5016828;28;20069;-65
2023/05/22 12:24:22;;;;;;;11.85;10.75;;;28.10;99.90;;;;;;5016762;28;20050;-65
2023/05/22 12:26:52;;;;;;;10.20;9.20;;;28.20;99.90;;;;;;5016864;28;20053;-65
2023/05/22 12:29:20;;;;;;;10.07;9.07;;;28.30;99.90;;;;;;5017015;28;20119;-65
2023/05/22 12:31:46;;;;;;;11.02;9.73;;;28.30;99.90;;;;;;5016778;28;20089;-65
2023/05/22 12:34:12;;;;;;;12.02;10.80;;;28.30;99.90;;;;;;5016764;28;20046;-65